Philadelphia, PA

3:45 AM EDT on April 25, 2015 (GMT -0400)
South Jersey Regional | | Change Station
CLOSE
Current Station
Airport
Location: Mount Holly,
Elevation: 52 ft
Nearby Weather Stations
Active Advisory: Frost Advisory

Elev 52 ft 39.94 °N, 74.84 °W | Updated 51 minutes ago

Clear
Clear
32 °F
Feels Like 32 °F
N
0
Wind Variable Wind from North

Today
High -- | Low -- °F
--% Chance of Precip.
Yesterday
High -- | Low -- °F
Precip. -- in
6:08 AM 7:48 PM
Waxing Crescent, 43% visible
Pressure 29.96 in
Visibility 10.0 miles
Clouds Clear
Dew Point 26 °F
Humidity 79%
Rainfall 0.00 in
Snow Depth Not available.
UV 0 out of 12
Pollen 9.70 out of 12
Air Quality Not available.
Flu Activity Sporadic
METAR KVAY 250654Z AUTO 00000KT 10SM CLR 00/M03 A2996 RMK AO2 SLP144 T00001033

More Conditions Fewer Conditions

Pressure 29.96 in
Visibility 10.0 miles
Clouds Clear
Dew Point 26 °F
Humidity 79%
Rainfall 0.00 in
Snow Depth Not available.
UV 0 out of 12
Pollen 9.70 out of 12
Air Quality Not available.
Flu Activity Sporadic
METAR KVAY 250654Z AUTO 00000KT 10SM CLR 00/M03 A2996 RMK AO2 SLP144 T00001033

More Conditions Fewer Conditions

10-Day Weather Forecast

Almanac

Astronomy

Apr. 25, 2015 Rise Set
Actual Time
Civil Twilight
Nautical Twilight
Astronomical Twilight
Moon
Length of Visible Light
Length of Day
Tomorrow will be .
, % of the Moon is Illuminated

Today's Extremes

State Highs State Lows

Community

WunderPhotos

Upload Photos

1,816,624 photos uploaded!

WunderBlogs® & News

Nearby

Air Quality

  Air Quality AQ Index Pollutant
Not available.

Snow Depth

Station Depth Elevation

Earthquake Activity

City Distance Mag. Time & Date
Minimum magnitude displayed is 2.5.

Coastal Water Temperatures

Place Temperature

Stations

Nearby Weather Stations

Station Location Temp. Windchill Dew Point Humidity Wind Precip. Elev Updated Type
                   
Frost Advisory
Statement as of 9:54 PM EDT on April 24, 2015

... Frost advisory remains in effect from 2 am to 8 am EDT
Saturday...

* low temperatures... mid 30s.

* Timing... frost may develop in sheltered areas early morning
Saturday.

* Impacts... possible damage to early season plants that are
unprotected.

Precautionary/preparedness actions...

A frost advisory means that widespread frost is expected.
Sensitive outdoor plants may be killed if left uncovered.